Time;durP1;ratioP1;P1;durP2;ratioP2;P2;SDS_P1;SDS_P2;PMS_P1;PMS_P2;Temp;Humidity;BMP_temperature;BMP_pressure;BME280_temperature;BME280_humidity;BME280_pressure;Samples;Min_cycle;Max_cycle;Signal;HPM_P1;HPM_P2
2021/08/31 00:00:46;;;;;;;;;;;20.90;74.00;;;;;;5013927;28;1158;-73
2021/08/31 00:03:11;;;;;;;;;;;20.80;74.00;;;;;;5013615;28;1257;-72
2021/08/31 00:05:37;;;;;;;;;;;20.90;74.00;;;;;;5013790;28;1128;-73
2021/08/31 00:08:02;;;;;;;;;;;20.90;74.00;;;;;;5014157;28;1109;-73
2021/08/31 00:10:27;;;;;;;;;;;20.90;74.00;;;;;;5014315;28;1096;-72
2021/08/31 00:12:53;;;;;;;;;;;20.90;74.10;;;;;;5013639;28;1339;-72
2021/08/31 00:15:18;;;;;;;;;;;20.80;74.00;;;;;;5013451;28;1045;-73
2021/08/31 00:17:44;;;;;;;;;;;20.90;74.10;;;;;;5013661;28;1938;-72
2021/08/31 00:20:10;;;;;;;;;;;20.90;74.10;;;;;;5013626;28;1170;-73
2021/08/31 00:22:36;;;;;;;;;;;20.80;74.00;;;;;;5013786;28;1328;-72
2021/08/31 00:25:02;;;;;;;;;;;20.90;74.10;;;;;;5013336;28;1123;-71
2021/08/31 00:27:28;;;;;;;;;;;20.90;74.10;;;;;;5013483;28;1164;-73
2021/08/31 00:29:53;;;;;;;;;;;20.80;74.10;;;;;;5013872;28;1135;-73
2021/08/31 00:32:19;;;;;;;;;;;20.80;74.10;;;;;;5013434;28;1343;-73
2021/08/31 00:34:44;;;;;;;;;;;20.90;74.20;;;;;;5007938;28;1128;-72
2021/08/31 00:37:09;;;;;;;;;;;20.90;74.20;;;;;;5005730;28;1081;-72
2021/08/31 00:39:35;;;;;;;;;;;20.80;74.10;;;;;;5008404;28;1915;-73
2021/08/31 00:42:00;;;;;;;;;;;20.90;74.20;;;;;;4993584;28;1264;-73
2021/08/31 00:44:27;;;;;;;;;;;20.90;74.30;;;;;;5010244;28;1128;-73
2021/08/31 00:46:53;;;;;;;;;;;20.80;74.20;;;;;;5004134;28;1060;-72
2021/08/31 00:49:18;;;;;;;;;;;20.80;74.20;;;;;;5013308;28;1125;-73
2021/08/31 00:51:44;;;;;;;;;;;20.90;74.30;;;;;;5013257;28;1269;-73
2021/08/31 00:54:09;;;;;;;;;;;20.80;74.20;;;;;;5012973;28;1116;-72
2021/08/31 00:56:34;;;;;;;;;;;20.80;74.20;;;;;;5011741;28;1155;-73
2021/08/31 00:59:00;;;;;;;;;;;20.80;74.20;;;;;;5009854;28;1965;-73
2021/08/31 01:01:26;;;;;;;;;;;20.80;74.20;;;;;;4996125;28;1210;-73
2021/08/31 01:03:51;;;;;;;;;;;20.90;74.30;;;;;;4998069;28;1360;-73
2021/08/31 01:06:17;;;;;;;;;;;20.90;74.30;;;;;;4994762;28;1353;-71
2021/08/31 01:08:42;;;;;;;;;;;20.80;74.20;;;;;;5009438;28;1109;-72
2021/08/31 01:11:07;;;;;;;;;;;20.90;74.30;;;;;;5012700;28;1252;-72
2021/08/31 01:13:33;;;;;;;;;;;20.80;74.30;;;;;;4994282;28;1280;-72
2021/08/31 01:15:59;;;;;;;;;;;20.90;74.40;;;;;;4995947;28;1217;-72
2021/08/31 01:18:26;;;;;;;;;;;20.90;74.30;;;;;;5011008;28;1902;-73
2021/08/31 01:20:52;;;;;;;;;;;20.80;74.30;;;;;;5012623;28;1153;-74
2021/08/31 01:23:18;;;;;;;;;;;20.80;74.30;;;;;;5010959;28;1330;-74
2021/08/31 01:25:43;;;;;;;;;;;20.80;74.30;;;;;;5000765;28;1213;-72
2021/08/31 01:28:13;;;;;;;;;;;20.80;74.40;;;;;;4995690;28;1156;-72
2021/08/31 01:30:39;;;;;;;;;;;20.80;74.30;;;;;;5002800;28;1036;-73
2021/08/31 01:33:04;;;;;;;;;;;20.80;74.40;;;;;;5006777;28;1272;-73
2021/08/31 01:35:29;;;;;;;;;;;20.80;74.30;;;;;;5005105;28;1113;-72
2021/08/31 01:37:55;;;;;;;;;;;20.80;74.40;;;;;;5007339;28;1918;-72
2021/08/31 01:40:20;;;;;;;;;;;20.80;74.40;;;;;;5004996;28;1132;-73
2021/08/31 01:42:46;;;;;;;;;;;20.80;74.40;;;;;;5008574;28;1334;-72
2021/08/31 01:45:11;;;;;;;;;;;20.80;74.40;;;;;;5012630;28;1351;-72
2021/08/31 01:47:37;;;;;;;;;;;20.80;74.40;;;;;;4999589;28;962;-72
2021/08/31 01:50:03;;;;;;;;;;;20.80;74.40;;;;;;5002905;28;1160;-72
2021/08/31 01:52:29;;;;;;;;;;;20.80;74.40;;;;;;5007760;28;1208;-73
2021/08/31 01:54:54;;;;;;;;;;;20.80;74.40;;;;;;5008446;28;1178;-73
2021/08/31 01:57:20;;;;;;;;;;;20.80;74.40;;;;;;5013395;28;1902;-72
2021/08/31 01:59:45;;;;;;;;;;;20.80;74.40;;;;;;4996838;28;1140;-72
2021/08/31 02:02:10;;;;;;;;;;;20.80;74.40;;;;;;4996622;28;1437;-72
2021/08/31 02:04:36;;;;;;;;;;;20.80;74.40;;;;;;4996436;28;1276;-72
2021/08/31 02:07:01;;;;;;;;;;;20.80;74.40;;;;;;4996880;28;1276;-72
2021/08/31 02:09:27;;;;;;;;;;;20.80;74.40;;;;;;4996611;28;1275;-72
2021/08/31 02:11:52;;;;;;;;;;;20.80;74.40;;;;;;4996561;28;1295;-72
2021/08/31 02:14:18;;;;;;;;;;;20.80;74.40;;;;;;5006861;28;1135;-72
2021/08/31 02:16:43;;;;;;;;;;;20.80;74.40;;;;;;5016049;28;1133;-72
2021/08/31 02:19:09;;;;;;;;;;;20.80;74.40;;;;;;5015955;28;1965;-72
2021/08/31 02:21:34;;;;;;;;;;;20.80;74.50;;;;;;5002817;28;1305;-73
2021/08/31 02:23:59;;;;;;;;;;;20.80;74.50;;;;;;4999046;28;1371;-72
2021/08/31 02:26:29;;;;;;;;;;;20.80;74.50;;;;;;4998685;28;1303;-72
2021/08/31 02:28:54;;;;;;;;;;;20.80;74.50;;;;;;5015887;28;1309;-71
2021/08/31 02:31:19;;;;;;;;;;;20.80;74.50;;;;;;5015872;28;1316;-71
2021/08/31 02:33:45;;;;;;;;;;;20.80;74.50;;;;;;5004696;28;1271;-71
2021/08/31 02:36:10;;;;;;;;;;;20.80;74.50;;;;;;4995998;28;1499;-72
2021/08/31 02:38:36;;;;;;;;;;;20.80;74.50;;;;;;4996555;28;1968;-72
2021/08/31 02:41:01;;;;;;;;;;;20.80;74.50;;;;;;4995927;28;1310;-72
2021/08/31 02:43:26;;;;;;;;;;;20.80;74.50;;;;;;4996086;28;1337;-72
2021/08/31 02:45:52;;;;;;;;;;;20.80;74.60;;;;;;4996103;28;1322;-72
2021/08/31 02:48:17;;;;;;;;;;;20.80;74.60;;;;;;4995935;28;1147;-72
2021/08/31 02:50:43;;;;;;;;;;;20.80;74.60;;;;;;4999327;28;1183;-72
2021/08/31 02:53:08;;;;;;;;;;;20.80;74.60;;;;;;5015229;28;1343;-72
2021/08/31 02:55:34;;;;;;;;;;;20.80;74.60;;;;;;5020825;28;1227;-72
2021/08/31 02:57:59;;;;;;;;;;;20.80;74.50;;;;;;4998395;28;1910;-72
2021/08/31 03:00:30;;;;;;;;;;;20.80;74.60;;;;;;5015206;28;1387;-72
2021/08/31 03:02:55;;;;;;;;;;;20.80;74.60;;;;;;5015254;28;1411;-72
2021/08/31 03:05:21;;;;;;;;;;;20.80;74.60;;;;;;5014896;28;1301;-72
2021/08/31 03:07:46;;;;;;;;;;;20.80;74.60;;;;;;5014199;28;1279;-72
2021/08/31 03:10:12;;;;;;;;;;;20.80;74.60;;;;;;5014898;28;1311;-72
2021/08/31 03:12:37;;;;;;;;;;;20.80;74.70;;;;;;5015003;28;1370;-72
2021/08/31 03:15:03;;;;;;;;;;;20.80;74.60;;;;;;4997142;28;1297;-72
2021/08/31 03:17:28;;;;;;;;;;;20.80;74.60;;;;;;5005762;28;1944;-72
2021/08/31 03:19:54;;;;;;;;;;;20.80;74.60;;;;;;4978027;28;1268;-71
2021/08/31 03:22:19;;;;;;;;;;;20.80;74.60;;;;;;4995145;28;1264;-70
2021/08/31 03:24:45;;;;;;;;;;;20.80;74.60;;;;;;4994854;28;1281;-71
2021/08/31 03:27:10;;;;;;;;;;;20.80;74.70;;;;;;4995822;28;1330;-72
2021/08/31 03:29:35;;;;;;;;;;;20.80;74.70;;;;;;4995299;28;1316;-71
2021/08/31 03:32:01;;;;;;;;;;;20.80;74.60;;;;;;4995262;28;1296;-72
2021/08/31 03:34:26;;;;;;;;;;;20.80;74.70;;;;;;4994955;28;1316;-71
2021/08/31 03:36:52;;;;;;;;;;;20.80;74.60;;;;;;4977887;28;1295;-70
2021/08/31 03:39:17;;;;;;;;;;;20.80;74.70;;;;;;4994609;28;1972;-70
2021/08/31 03:41:43;;;;;;;;;;;20.80;74.70;;;;;;4994952;28;1300;-70
2021/08/31 03:44:08;;;;;;;;;;;20.80;74.60;;;;;;4994543;28;1355;-72
2021/08/31 03:46:33;;;;;;;;;;;20.80;74.70;;;;;;4977425;28;1311;-72
2021/08/31 03:48:59;;;;;;;;;;;20.80;74.70;;;;;;4995068;28;1272;-72
2021/08/31 03:51:24;;;;;;;;;;;20.80;74.60;;;;;;5004184;28;1402;-72
2021/08/31 03:53:50;;;;;;;;;;;20.80;74.70;;;;;;5013840;28;1414;-72
2021/08/31 03:56:15;;;;;;;;;;;20.80;74.70;;;;;;5019696;28;1151;-72
2021/08/31 03:58:41;;;;;;;;;;;20.80;74.70;;;;;;5014404;28;1962;-72
2021/08/31 04:01:06;;;;;;;;;;;20.80;74.70;;;;;;5014329;28;1073;-71
2021/08/31 04:03:31;;;;;;;;;;;20.80;74.70;;;;;;5013793;28;1356;-71
2021/08/31 04:05:57;;;;;;;;;;;20.80;74.70;;;;;;5014126;28;1289;-71
2021/08/31 04:08:22;;;;;;;;;;;20.80;74.70;;;;;;5013858;28;1386;-72
2021/08/31 04:10:48;;;;;;;;;;;20.80;74.70;;;;;;5014161;28;1105;-71
2021/08/31 04:13:17;;;;;;;;;;;20.80;74.70;;;;;;5013734;28;1355;-72
2021/08/31 04:15:43;;;;;;;;;;;20.80;74.70;;;;;;5014012;28;1364;-71
2021/08/31 04:18:09;;;;;;;;;;;20.80;74.70;;;;;;5013667;28;1910;-73
2021/08/31 04:20:34;;;;;;;;;;;20.80;74.70;;;;;;5013978;28;1264;-73
2021/08/31 04:22:59;;;;;;;;;;;20.80;74.70;;;;;;5013467;28;1351;-73
2021/08/31 04:25:25;;;;;;;;;;;20.80;74.70;;;;;;5013621;28;1390;-73
2021/08/31 04:27:50;;;;;;;;;;;20.80;74.70;;;;;;5014121;28;1371;-72
2021/08/31 04:30:16;;;;;;;;;;;20.80;74.80;;;;;;5013704;28;1105;-72
2021/08/31 04:32:41;;;;;;;;;;;20.80;74.70;;;;;;5014062;28;1390;-73
2021/08/31 04:35:07;;;;;;;;;;;20.80;74.70;;;;;;4995704;28;1214;-72
2021/08/31 04:37:32;;;;;;;;;;;20.80;74.70;;;;;;5013281;28;1906;-73
2021/08/31 04:39:58;;;;;;;;;;;20.80;74.80;;;;;;5013620;28;1381;-73
2021/08/31 04:42:23;;;;;;;;;;;20.80;74.70;;;;;;4996011;28;1313;-74
2021/08/31 04:44:49;;;;;;;;;;;20.80;74.80;;;;;;5013283;28;1263;-72
2021/08/31 04:47:15;;;;;;;;;;;20.80;74.70;;;;;;5013496;28;1261;-72
2021/08/31 04:49:40;;;;;;;;;;;20.80;74.80;;;;;;5013550;28;1170;-72
2021/08/31 04:52:06;;;;;;;;;;;20.80;74.70;;;;;;5011421;28;1263;-73
2021/08/31 04:54:31;;;;;;;;;;;20.80;75.50;;;;;;5002183;28;1072;-73
2021/08/31 04:56:57;;;;;;;;;;;20.70;74.60;;;;;;5012060;28;1044;-73
2021/08/31 04:59:22;;;;;;;;;;;20.80;74.70;;;;;;5013125;28;1902;-71
2021/08/31 05:01:48;;;;;;;;;;;20.80;74.70;;;;;;5013413;28;1360;-71
2021/08/31 05:04:13;;;;;;;;;;;20.80;74.70;;;;;;5013513;28;1296;-71
2021/08/31 05:06:39;;;;;;;;;;;20.80;74.70;;;;;;5012839;28;1278;-72
2021/08/31 05:09:04;;;;;;;;;;;20.80;74.70;;;;;;5013402;28;1205;-72
2021/08/31 05:11:30;;;;;;;;;;;20.80;74.80;;;;;;5013051;28;1156;-73
2021/08/31 05:13:55;;;;;;;;;;;20.80;74.70;;;;;;5013156;28;1287;-72
2021/08/31 05:16:20;;;;;;;;;;;20.80;74.80;;;;;;5012956;28;1238;-72
2021/08/31 05:18:46;;;;;;;;;;;20.80;74.70;;;;;;5013132;28;1899;-72
2021/08/31 05:21:11;;;;;;;;;;;20.80;74.80;;;;;;4995257;28;1312;-72
2021/08/31 05:23:37;;;;;;;;;;;20.80;74.80;;;;;;4984171;28;1929;-70
2021/08/31 05:26:02;;;;;;;;;;;20.80;74.80;;;;;;5000800;28;1938;-70
2021/08/31 05:28:28;;;;;;;;;;;20.70;74.70;;;;;;4990505;28;1138;-69
2021/08/31 05:30:53;;;;;;;;;;;20.80;74.80;;;;;;4996710;28;1225;-69
2021/08/31 05:33:19;;;;;;;;;;;20.80;74.80;;;;;;4998119;28;1319;-68
2021/08/31 05:35:44;;;;;;;;;;;20.80;74.70;;;;;;5016194;28;1294;-67
2021/08/31 05:38:10;;;;;;;;;;;20.80;74.80;;;;;;5015816;28;1954;-67
2021/08/31 05:40:35;;;;;;;;;;;20.70;74.70;;;;;;5015783;28;1322;-68
2021/08/31 05:43:00;;;;;;;;;;;20.70;74.70;;;;;;4982081;28;1307;-72
2021/08/31 05:45:28;;;;;;;;;;;20.70;74.70;;;;;;5016250;28;1056;-73
2021/08/31 05:47:53;;;;;;;;;;;20.70;74.70;;;;;;4997182;28;1276;-73
2021/08/31 05:50:19;;;;;;;;;;;20.70;74.60;;;;;;5000287;28;1156;-74
2021/08/31 05:52:44;;;;;;;;;;;20.70;74.60;;;;;;5018068;28;1325;-74
2021/08/31 05:55:10;;;;;;;;;;;20.80;74.70;;;;;;5004830;28;1348;-73
2021/08/31 05:57:35;;;;;;;;;;;20.80;74.70;;;;;;5020316;28;1932;-74
2021/08/31 06:00:01;;;;;;;;;;;20.80;74.70;;;;;;5020053;28;1085;-72
2021/08/31 06:02:26;;;;;;;;;;;20.80;74.70;;;;;;4997205;28;1427;-73
2021/08/31 06:04:51;;;;;;;;;;;20.80;74.70;;;;;;4997434;28;1285;-73
2021/08/31 06:07:17;;;;;;;;;;;20.80;74.70;;;;;;4998900;28;1454;-73
2021/08/31 06:09:43;;;;;;;;;;;20.80;74.60;;;;;;4999300;28;1376;-73
2021/08/31 06:12:09;;;;;;;;;;;20.80;74.60;;;;;;5000157;28;1346;-73
2021/08/31 06:14:34;;;;;;;;;;;20.80;74.60;;;;;;4980761;28;2394;-73
2021/08/31 06:17:00;;;;;;;;;;;20.80;74.50;;;;;;4996966;28;1303;-72
2021/08/31 06:19:25;;;;;;;;;;;20.80;74.50;;;;;;4979789;28;1915;-73
2021/08/31 06:21:51;;;;;;;;;;;20.80;74.50;;;;;;5002999;28;1310;-73
2021/08/31 06:24:16;;;;;;;;;;;20.80;74.40;;;;;;4993927;28;2069;-71
2021/08/31 06:26:42;;;;;;;;;;;20.80;74.40;;;;;;4993689;28;2327;-73
2021/08/31 06:29:07;;;;;;;;;;;20.80;74.40;;;;;;4979670;28;1252;-73
2021/08/31 06:31:33;;;;;;;;;;;20.80;74.30;;;;;;5015878;28;1310;-73
2021/08/31 06:33:58;;;;;;;;;;;20.80;74.30;;;;;;5016104;28;1360;-72
2021/08/31 06:36:24;;;;;;;;;;;20.80;74.30;;;;;;4999847;28;1470;-71
2021/08/31 06:38:49;;;;;;;;;;;20.80;74.20;;;;;;5016387;28;1906;-72
2021/08/31 06:41:15;;;;;;;;;;;20.80;74.20;;;;;;5015779;28;1331;-70
2021/08/31 06:43:41;;;;;;;;;;;20.80;74.20;;;;;;5015167;28;1726;-71
2021/08/31 06:46:07;;;;;;;;;;;20.90;74.20;;;;;;5015735;28;1530;-71
2021/08/31 06:48:32;;;;;;;;;;;20.90;74.20;;;;;;4998225;28;1693;-72
2021/08/31 06:50:58;;;;;;;;;;;20.90;74.20;;;;;;5015184;28;1301;-72
2021/08/31 06:53:23;;;;;;;;;;;20.80;74.10;;;;;;5002972;28;1349;-72
2021/08/31 06:55:49;;;;;;;;;;;20.90;74.20;;;;;;5012044;28;1308;-72
2021/08/31 06:58:14;;;;;;;;;;;20.90;74.10;;;;;;5016215;28;1902;-71
2021/08/31 07:00:39;;;;;;;;;;;20.90;74.10;;;;;;5016523;28;1383;-71
2021/08/31 07:03:05;;;;;;;;;;;20.90;74.10;;;;;;5016997;28;1308;-72
2021/08/31 07:05:30;;;;;;;;;;;20.90;74.10;;;;;;4999286;28;1363;-72
2021/08/31 07:07:56;;;;;;;;;;;20.90;74.10;;;;;;5017617;28;1373;-72
2021/08/31 07:10:21;;;;;;;;;;;20.90;74.10;;;;;;5017480;28;1330;-72
2021/08/31 07:12:47;;;;;;;;;;;20.90;74.10;;;;;;5017826;28;1366;-72
2021/08/31 07:15:12;;;;;;;;;;;20.90;74.10;;;;;;5016993;28;1276;-72
2021/08/31 07:17:38;;;;;;;;;;;20.90;74.10;;;;;;4997614;28;1902;-71
2021/08/31 07:20:04;;;;;;;;;;;20.90;74.10;;;;;;5014816;28;1131;-72
2021/08/31 07:22:29;;;;;;;;;;;20.90;74.10;;;;;;5015013;28;1279;-71
2021/08/31 07:24:54;;;;;;;;;;;20.90;74.10;;;;;;5014437;28;1308;-71
2021/08/31 07:27:20;;;;;;;;;;;20.90;74.10;;;;;;5009980;28;1900;-72
2021/08/31 07:29:45;;;;;;;;;;;20.90;74.10;;;;;;5012965;28;1235;-71
2021/08/31 07:32:11;;;;;;;;;;;20.90;74.10;;;;;;5014531;28;1373;-71
2021/08/31 07:34:38;;;;;;;;;;;20.90;74.10;;;;;;5009539;28;1144;-71
2021/08/31 07:37:04;;;;;;;;;;;20.90;74.10;;;;;;5013945;28;1081;-71
2021/08/31 07:39:31;;;;;;;;;;;20.90;74.20;;;;;;5014557;28;1914;-73
2021/08/31 07:41:57;;;;;;;;;;;20.90;74.20;;;;;;5003702;28;1286;-72
2021/08/31 07:44:22;;;;;;;;;;;20.90;74.20;;;;;;4995697;28;1185;-73
2021/08/31 07:46:47;;;;;;;;;;;20.90;74.30;;;;;;4994353;28;1282;-73
2021/08/31 07:49:13;;;;;;;;;;;20.90;74.30;;;;;;5013230;28;1124;-72
2021/08/31 07:51:39;;;;;;;;;;;20.90;74.20;;;;;;4996711;28;1312;-73
2021/08/31 07:54:04;;;;;;;;;;;20.90;74.30;;;;;;5008897;28;1227;-72
2021/08/31 07:56:30;;;;;;;;;;;20.90;74.30;;;;;;4979615;28;1293;-73
2021/08/31 07:58:55;;;;;;;;;;;20.90;74.30;;;;;;5012550;28;1959;-71
2021/08/31 08:01:22;;;;;;;;;;;20.90;74.30;;;;;;5014286;28;1103;-73
2021/08/31 08:03:47;;;;;;;;;;;20.90;74.30;;;;;;5013658;28;1381;-73
2021/08/31 08:06:12;;;;;;;;;;;20.90;74.30;;;;;;5014241;28;1236;-73
2021/08/31 08:08:38;;;;;;;;;;;20.90;74.30;;;;;;4996426;28;1565;-73
2021/08/31 08:11:03;;;;;;;;;;;20.90;74.30;;;;;;5018094;28;1029;-74
2021/08/31 08:13:29;;;;;;;;;;;20.90;74.30;;;;;;4965674;28;1328;-72
2021/08/31 08:15:54;;;;;;;;;;;20.90;74.30;;;;;;5004779;28;1311;-72
2021/08/31 08:18:20;;;;;;;;;;;20.90;74.30;;;;;;5013805;28;1973;-72
2021/08/31 08:20:46;;;;;;;;;;;20.90;74.30;;;;;;5013754;28;1270;-72
2021/08/31 08:23:12;;;;;;;;;;;20.90;74.30;;;;;;5028105;22;2243;-68
2021/08/31 08:25:38;;;;;;;;;;;20.90;74.30;;;;;;5012916;28;2130;-68
2021/08/31 08:28:03;;;;;;;;;;;20.90;74.30;;;;;;5013858;28;1683;-68
2021/08/31 08:30:29;;;;;;;;;;;20.90;74.30;;;;;;5013635;28;1683;-68
2021/08/31 08:32:54;;;;;;;;;;;20.90;74.30;;;;;;5013394;28;1642;-68
2021/08/31 08:35:21;;;;;;;;;;;20.90;74.30;;;;;;5013259;28;1377;-68
2021/08/31 08:37:47;;;;;;;;;;;20.90;74.30;;;;;;5013629;28;1914;-67
2021/08/31 08:40:12;;;;;;;;;;;20.90;74.20;;;;;;4995921;28;1373;-68
2021/08/31 08:42:38;;;;;;;;;;;20.90;74.20;;;;;;5013607;28;1545;-68
2021/08/31 08:45:05;;;;;;;;;;;20.90;73.80;;;;;;5013202;28;1414;-67
2021/08/31 08:47:31;;;;;;;;;;;20.90;73.70;;;;;;5013401;28;1468;-68
2021/08/31 08:49:56;;;;;;;;;;;20.90;73.60;;;;;;4996510;28;1240;-67
2021/08/31 08:52:21;;;;;;;;;;;20.90;73.70;;;;;;5006099;28;1447;-68
2021/08/31 08:54:47;;;;;;;;;;;20.90;73.80;;;;;;4993536;28;1225;-67
2021/08/31 08:57:15;;;;;;;;;;;20.90;73.90;;;;;;4996210;28;1251;-67
2021/08/31 08:59:41;;;;;;;;;;;20.90;73.80;;;;;;4976363;28;1903;-67
2021/08/31 09:02:07;;;;;;;;;;;20.90;73.70;;;;;;4993514;28;1390;-68
2021/08/31 09:04:45;;;;;;;;;;;20.90;72.10;;;;;;4992606;28;1677;-68
2021/08/31 09:07:20;;;;;;;;;;;20.80;71.30;;;;;;4993405;28;1430;-68
2021/08/31 09:09:46;;;;;;;;;;;20.80;71.00;;;;;;4993748;28;1852;-67
2021/08/31 09:12:28;;;;;;;;;;;20.80;70.70;;;;;;4993501;28;1701;-67
2021/08/31 09:14:53;;;;;;;;;;;20.80;70.40;;;;;;4993458;28;1402;-67
2021/08/31 09:17:20;;;;;;;;;;;20.80;70.90;;;;;;4993633;28;1383;-67
2021/08/31 09:19:45;;;;;;;;;;;20.70;71.00;;;;;;4993401;28;1902;-68
2021/08/31 09:22:14;;;;;;;;;;;20.70;70.90;;;;;;4993349;28;1653;-68
2021/08/31 09:24:40;;;;;;;;;;;20.70;71.00;;;;;;4974288;28;1520;-67
2021/08/31 09:27:05;;;;;;;;;;;20.70;72.10;;;;;;4973740;28;1230;-68
2021/08/31 09:29:35;;;;;;;;;;;20.70;73.10;;;;;;4975203;28;1711;-68
2021/08/31 09:32:03;;;;;;;;;;;20.80;72.40;;;;;;4991095;28;1391;-67
2021/08/31 09:34:31;;;;;;;;;;;20.80;72.60;;;;;;4991411;28;1198;-67
2021/08/31 09:37:17;;;;;;;;;;;20.80;72.40;;;;;;4993582;28;1375;-67
2021/08/31 09:39:42;;;;;;;;;;;20.70;72.70;;;;;;4991218;28;1911;-67
2021/08/31 09:42:08;;;;;;;;;;;20.80;72.60;;;;;;4973446;28;1249;-68
2021/08/31 09:44:33;;;;;;;;;;;20.80;72.70;;;;;;4990190;28;1281;-68
2021/08/31 09:47:00;;;;;;;;;;;20.80;72.80;;;;;;4973174;28;1214;-67
2021/08/31 09:49:32;;;;;;;;;;;20.80;73.00;;;;;;4983560;28;1264;-67
2021/08/31 09:52:07;;;;;;;;;;;20.80;72.90;;;;;;4974479;28;1356;-68
2021/08/31 09:54:34;;;;;;;;;;;20.80;73.10;;;;;;4999648;28;1532;-67
2021/08/31 09:56:59;;;;;;;;;;;20.80;72.80;;;;;;4979678;28;1693;-68
2021/08/31 09:59:25;;;;;;;;;;;20.80;72.80;;;;;;4992696;28;1906;-67
2021/08/31 10:01:53;;;;;;;;;;;20.80;72.80;;;;;;4992731;28;1556;-67
2021/08/31 10:04:20;;;;;;;;;;;20.80;73.00;;;;;;4992180;28;1228;-67
2021/08/31 10:06:45;;;;;;;;;;;20.80;73.20;;;;;;4992468;28;1658;-67
2021/08/31 10:09:10;;;;;;;;;;;20.80;73.10;;;;;;4975469;28;1620;-67
2021/08/31 10:11:36;;;;;;;;;;;20.80;73.30;;;;;;4967722;28;2086;-66
2021/08/31 10:14:01;;;;;;;;;;;20.80;73.90;;;;;;4972366;28;1512;-67
2021/08/31 10:16:27;;;;;;;;;;;20.80;73.10;;;;;;4976813;28;1421;-67
2021/08/31 10:18:52;;;;;;;;;;;20.80;72.60;;;;;;4972343;28;2277;-67
2021/08/31 10:21:18;;;;;;;;;;;20.80;72.30;;;;;;4978950;28;1543;-67
2021/08/31 10:23:44;;;;;;;;;;;20.80;72.00;;;;;;4996037;28;1356;-67
2021/08/31 10:26:26;;;;;;;;;;;20.80;72.60;;;;;;4978882;28;1641;-67
2021/08/31 10:29:19;;;;;;;;;;;20.80;72.50;;;;;;4979736;28;1463;-67
2021/08/31 10:31:45;;;;;;;;;;;20.80;72.70;;;;;;4993157;28;1635;-67
2021/08/31 10:34:29;;;;;;;;;;;20.80;72.90;;;;;;4978566;28;1451;-67
2021/08/31 10:37:01;;;;;;;;;;;20.80;73.10;;;;;;4996220;28;1365;-67
2021/08/31 10:39:41;;;;;;;;;;;20.80;73.10;;;;;;4978912;28;1910;-67
2021/08/31 10:42:10;;;;;;;;;;;20.80;73.00;;;;;;4995922;28;1368;-67
2021/08/31 10:44:37;;;;;;;;;;;20.80;72.70;;;;;;4958283;28;1213;-67
2021/08/31 10:47:04;;;;;;;;;;;20.80;72.70;;;;;;4979950;28;1331;-67
2021/08/31 10:49:29;;;;;;;;;;;20.80;72.30;;;;;;4996171;28;1240;-67
2021/08/31 10:52:05;;;;;;;;;;;20.80;71.80;;;;;;4980599;28;1234;-68
2021/08/31 10:54:51;;;;;;;;;;;20.80;71.90;;;;;;4995094;28;1223;-67
2021/08/31 10:57:34;;;;;;;;;;;20.80;72.00;;;;;;5003793;28;1276;-67
2021/08/31 11:00:00;;;;;;;;;;;20.80;72.10;;;;;;4995822;28;1906;-68
2021/08/31 11:03:04;;;;;;;;;;;20.80;72.40;;;;;;4977263;28;1402;-67
2021/08/31 11:05:30;;;;;;;;;;;20.80;72.60;;;;;;4916523;29;1508;-67
2021/08/31 11:07:59;;;;;;;;;;;20.80;72.70;;;;;;4917537;29;1317;-67
2021/08/31 11:10:26;;;;;;;;;;;20.80;72.90;;;;;;4954043;28;1278;-68
2021/08/31 11:12:51;;;;;;;;;;;20.80;73.10;;;;;;4979825;28;1399;-68
2021/08/31 11:15:21;;;;;;;;;;;20.80;73.10;;;;;;4995005;28;1417;-67
2021/08/31 11:17:47;;;;;;;;;;;20.80;73.10;;;;;;4992570;28;1890;-68
2021/08/31 11:20:31;;;;;;;;;;;20.80;73.20;;;;;;4978746;28;1428;-68
2021/08/31 11:23:03;;;;;;;;;;;20.90;73.40;;;;;;4996170;28;1307;-67
2021/08/31 11:25:29;;;;;;;;;;;20.90;73.50;;;;;;4992622;28;1227;-67
2021/08/31 11:27:57;;;;;;;;;;;20.90;73.70;;;;;;4994672;28;1363;-67
2021/08/31 11:30:22;;;;;;;;;;;20.90;73.80;;;;;;4994822;28;1385;-67
2021/08/31 11:32:48;;;;;;;;;;;20.90;73.80;;;;;;4996566;28;1379;-67
2021/08/31 11:35:13;;;;;;;;;;;20.90;74.10;;;;;;4977149;28;1287;-68
2021/08/31 11:37:48;;;;;;;;;;;20.90;74.00;;;;;;4994982;28;1262;-68
2021/08/31 11:40:14;;;;;;;;;;;20.90;74.10;;;;;;4994932;28;1285;-68
2021/08/31 11:42:49;;;;;;;;;;;20.90;74.30;;;;;;4977136;28;1360;-67
2021/08/31 11:45:16;;;;;;;;;;;20.90;74.30;;;;;;4977298;28;1303;-67
2021/08/31 11:47:41;;;;;;;;;;;20.90;74.50;;;;;;4994664;28;1343;-68
2021/08/31 11:50:07;;;;;;;;;;;20.90;74.40;;;;;;4994907;28;1214;-67
2021/08/31 11:52:32;;;;;;;;;;;20.90;74.60;;;;;;4994671;28;1348;-68
2021/08/31 11:54:58;;;;;;;;;;;20.90;74.80;;;;;;4998146;28;1284;-67
2021/08/31 11:57:33;;;;;;;;;;;20.90;74.50;;;;;;4978468;28;1853;-67
2021/08/31 11:59:58;;;;;;;;;;;20.90;74.10;;;;;;4994720;28;1902;-67
2021/08/31 12:02:27;;;;;;;;;;;20.90;74.00;;;;;;4977162;28;1384;-67
2021/08/31 12:04:53;;;;;;;;;;;20.90;74.00;;;;;;4976935;28;1359;-68
2021/08/31 12:07:18;;;;;;;;;;;20.90;73.90;;;;;;4994369;28;1393;-67
2021/08/31 12:09:44;;;;;;;;;;;20.90;73.60;;;;;;4994123;28;1349;-68
2021/08/31 12:12:09;;;;;;;;;;;20.90;73.60;;;;;;4977050;28;1266;-67
2021/08/31 12:14:35;;;;;;;;;;;20.90;73.50;;;;;;4993535;28;1329;-67
2021/08/31 12:17:00;;;;;;;;;;;20.90;73.40;;;;;;4976836;28;1410;-67
2021/08/31 12:19:26;;;;;;;;;;;20.90;73.30;;;;;;4994157;28;1961;-67
2021/08/31 12:22:10;;;;;;;;;;;20.90;73.40;;;;;;4976980;28;1480;-67
2021/08/31 12:24:36;;;;;;;;;;;20.90;73.20;;;;;;4993903;28;1364;-67
2021/08/31 12:27:19;;;;;;;;;;;20.90;73.30;;;;;;4994069;28;1348;-67
2021/08/31 12:29:45;;;;;;;;;;;20.90;73.20;;;;;;4994221;28;1336;-67
2021/08/31 12:32:11;;;;;;;;;;;20.90;73.20;;;;;;4993882;28;1383;-67
2021/08/31 12:34:36;;;;;;;;;;;20.90;73.20;;;;;;4993524;28;1333;-68
2021/08/31 12:37:02;;;;;;;;;;;20.80;73.00;;;;;;4976442;28;1350;-68
2021/08/31 12:39:28;;;;;;;;;;;20.80;72.90;;;;;;4993652;28;1964;-68
2021/08/31 12:41:53;;;;;;;;;;;20.90;72.90;;;;;;4994059;28;1282;-68
2021/08/31 12:44:19;;;;;;;;;;;20.80;72.70;;;;;;4993365;28;1438;-68
2021/08/31 12:46:44;;;;;;;;;;;20.90;72.40;;;;;;4993580;28;1372;-68
2021/08/31 12:49:13;;;;;;;;;;;20.90;72.50;;;;;;4993369;28;1335;-68
2021/08/31 12:51:39;;;;;;;;;;;20.90;72.50;;;;;;4993859;28;1281;-68
2021/08/31 12:54:04;;;;;;;;;;;20.90;72.30;;;;;;4975870;28;1337;-68
2021/08/31 12:56:30;;;;;;;;;;;20.80;72.30;;;;;;4998998;28;1459;-68
2021/08/31 12:59:03;;;;;;;;;;;20.80;73.10;;;;;;4993457;28;1902;-68
2021/08/31 13:01:28;;;;;;;;;;;20.90;72.40;;;;;;4993617;28;1283;-67
2021/08/31 13:03:58;;;;;;;;;;;20.90;72.30;;;;;;4992681;28;1301;-68
2021/08/31 13:06:33;;;;;;;;;;;20.80;72.20;;;;;;4976347;28;1265;-67
2021/08/31 13:08:59;;;;;;;;;;;20.90;72.60;;;;;;4993692;28;1337;-67
2021/08/31 13:11:25;;;;;;;;;;;20.90;72.50;;;;;;4975974;28;1293;-67
2021/08/31 13:13:51;;;;;;;;;;;20.90;72.70;;;;;;4993120;28;1273;-67
2021/08/31 13:16:16;;;;;;;;;;;20.90;72.30;;;;;;4992917;28;1275;-67
2021/08/31 13:18:42;;;;;;;;;;;20.90;72.20;;;;;;4975102;28;1962;-68
2021/08/31 13:21:07;;;;;;;;;;;20.90;72.00;;;;;;4994188;28;1489;-67
2021/08/31 13:23:33;;;;;;;;;;;20.90;72.00;;;;;;4994296;28;1365;-68
2021/08/31 13:25:58;;;;;;;;;;;20.90;72.20;;;;;;4992810;28;1330;-68
2021/08/31 13:28:23;;;;;;;;;;;20.90;72.20;;;;;;4994187;28;1522;-68
2021/08/31 13:30:49;;;;;;;;;;;20.90;72.00;;;;;;4992362;28;1361;-68
2021/08/31 13:33:18;;;;;;;;;;;20.90;72.10;;;;;;4975747;28;1305;-68
2021/08/31 13:35:44;;;;;;;;;;;20.90;71.80;;;;;;4994440;28;1330;-67
2021/08/31 13:38:10;;;;;;;;;;;20.90;71.80;;;;;;4993069;28;1914;-67
2021/08/31 13:40:35;;;;;;;;;;;20.90;71.90;;;;;;4992831;28;1485;-67
2021/08/31 13:43:01;;;;;;;;;;;20.90;71.80;;;;;;4993344;28;1376;-68
2021/08/31 13:45:26;;;;;;;;;;;20.90;71.90;;;;;;4992343;28;1468;-68
2021/08/31 13:47:51;;;;;;;;;;;20.90;72.00;;;;;;4994722;28;1261;-67
2021/08/31 13:50:17;;;;;;;;;;;20.90;72.00;;;;;;4992783;28;1380;-66
2021/08/31 13:52:42;;;;;;;;;;;20.90;72.00;;;;;;4996817;28;1391;-66
2021/08/31 13:55:08;;;;;;;;;;;20.90;72.10;;;;;;4999117;28;1267;-68
2021/08/31 13:57:33;;;;;;;;;;;20.90;72.50;;;;;;4998623;28;1381;-67
2021/08/31 13:59:59;;;;;;;;;;;20.90;72.40;;;;;;4996179;28;1899;-67
2021/08/31 14:02:24;;;;;;;;;;;20.90;72.40;;;;;;5016097;28;1356;-67
2021/08/31 14:04:50;;;;;;;;;;;20.90;72.20;;;;;;4997697;28;2229;-67
2021/08/31 14:07:15;;;;;;;;;;;20.90;72.20;;;;;;4995316;28;1331;-67
2021/08/31 14:09:41;;;;;;;;;;;20.90;72.10;;;;;;4996073;28;1155;-67
2021/08/31 14:12:06;;;;;;;;;;;20.90;71.60;;;;;;4990117;28;1300;-66
2021/08/31 14:14:31;;;;;;;;;;;20.90;71.30;;;;;;4996045;28;1159;-67
2021/08/31 14:16:57;;;;;;;;;;;20.90;71.50;;;;;;4996238;28;1415;-67
2021/08/31 14:19:23;;;;;;;;;;;20.90;71.80;;;;;;4996670;28;1957;-67
2021/08/31 14:21:48;;;;;;;;;;;20.90;71.90;;;;;;4996360;28;1334;-67
2021/08/31 14:24:14;;;;;;;;;;;20.90;72.00;;;;;;5057783;22;3509;-74
2021/08/31 14:26:39;;;;;;;;;;;20.90;71.50;;;;;;5007502;28;1565;-74